createdAt,value
2023-05-10T00:00:38.282Z,388.00
2023-05-10T00:01:38.321Z,387.00
2023-05-10T00:02:38.577Z,388.00
2023-05-10T00:03:38.459Z,385.00
2023-05-10T00:04:38.442Z,382.00
2023-05-10T00:05:38.454Z,379.00
2023-05-10T00:06:38.541Z,377.00
2023-05-10T00:07:38.514Z,380.00
2023-05-10T00:08:38.554Z,383.00
2023-05-10T00:09:38.568Z,385.00
2023-05-10T00:10:38.623Z,386.00
2023-05-10T00:11:38.708Z,387.00
2023-05-10T00:12:38.709Z,388.00
2023-05-10T00:13:38.746Z,390.00
2023-05-10T00:14:38.761Z,391.00
2023-05-10T00:15:38.862Z,392.00
2023-05-10T00:16:38.954Z,391.00
2023-05-10T00:17:38.995Z,389.00
2023-05-10T00:18:38.980Z,388.00
2023-05-10T00:19:39.024Z,386.00
2023-05-10T00:20:39.032Z,384.00
2023-05-10T00:21:39.081Z,384.00
2023-05-10T00:22:39.084Z,384.00
2023-05-10T00:23:39.162Z,387.00
2023-05-10T00:24:39.159Z,387.00
2023-05-10T00:25:39.161Z,387.00
2023-05-10T00:26:39.178Z,385.00
2023-05-10T00:27:39.181Z,384.00
2023-05-10T00:28:39.247Z,383.00
2023-05-10T00:29:39.263Z,381.00
2023-05-10T00:30:39.277Z,385.00
2023-05-10T00:31:39.327Z,385.00
2023-05-10T00:32:39.420Z,384.00
2023-05-10T00:33:39.385Z,383.00
2023-05-10T00:34:39.412Z,380.00
2023-05-10T00:35:39.454Z,379.00
2023-05-10T00:36:39.444Z,382.00
2023-05-10T00:37:39.461Z,382.00
2023-05-10T00:38:39.469Z,381.00
2023-05-10T00:39:39.489Z,381.00
2023-05-10T00:40:39.481Z,381.00
2023-05-10T00:41:39.476Z,380.00
2023-05-10T00:42:39.486Z,382.00
2023-05-10T00:43:39.521Z,380.00
2023-05-10T00:44:39.502Z,381.00
2023-05-10T00:45:39.569Z,380.00
2023-05-10T00:46:39.499Z,380.00
2023-05-10T00:47:39.503Z,380.00
2023-05-10T00:48:39.487Z,378.00
2023-05-10T00:49:39.478Z,378.00
2023-05-10T00:50:39.510Z,380.00
2023-05-10T00:51:39.492Z,380.00
2023-05-10T00:52:39.477Z,383.00
2023-05-10T00:53:39.498Z,382.00
2023-05-10T00:54:39.485Z,381.00
2023-05-10T00:55:39.480Z,380.00
2023-05-10T00:56:39.482Z,380.00
2023-05-10T00:57:39.487Z,382.00
2023-05-10T00:58:39.469Z,384.00
2023-05-10T00:59:39.461Z,384.00
2023-05-10T01:00:39.455Z,382.00
2023-05-10T01:01:39.482Z,380.00
2023-05-10T01:02:39.597Z,383.00
2023-05-10T01:03:39.522Z,384.00
2023-05-10T01:04:39.492Z,383.00
2023-05-10T01:05:39.440Z,382.00
2023-05-10T01:06:39.457Z,383.00
2023-05-10T01:07:39.452Z,381.00
2023-05-10T01:08:39.477Z,379.00
2023-05-10T01:09:39.440Z,377.00
2023-05-10T01:10:39.485Z,377.00
2023-05-10T01:11:39.516Z,380.00
2023-05-10T01:12:39.509Z,382.00
2023-05-10T01:13:39.494Z,382.00
2023-05-10T01:14:39.517Z,381.00
2023-05-10T01:15:39.527Z,382.00
2023-05-10T01:16:39.489Z,379.00
2023-05-10T01:17:39.526Z,379.00
2023-05-10T01:18:39.479Z,378.00
2023-05-10T01:19:39.470Z,378.00
2023-05-10T01:20:39.492Z,381.00
2023-05-10T01:21:39.465Z,381.00
2023-05-10T01:22:39.500Z,382.00
2023-05-10T01:23:39.509Z,382.00
2023-05-10T01:24:39.514Z,381.00
2023-05-10T01:25:39.505Z,381.00
2023-05-10T01:26:39.533Z,382.00
2023-05-10T01:27:39.556Z,379.00
2023-05-10T01:28:39.522Z,379.00
2023-05-10T01:29:39.507Z,380.00
2023-05-10T01:30:39.515Z,383.00
2023-05-10T01:31:39.577Z,382.00
2023-05-10T01:32:39.542Z,382.00
2023-05-10T01:33:39.508Z,383.00
2023-05-10T01:34:39.535Z,380.00
2023-05-10T01:35:39.589Z,381.00
2023-05-10T01:36:39.558Z,380.00
2023-05-10T01:37:39.575Z,381.00
2023-05-10T01:38:39.600Z,383.00
2023-05-10T01:39:39.571Z,382.00
2023-05-10T01:40:39.577Z,383.00
2023-05-10T01:41:39.583Z,382.00
2023-05-10T01:42:39.603Z,381.00
2023-05-10T01:43:39.656Z,380.00
2023-05-10T01:44:39.615Z,379.00
2023-05-10T01:45:39.589Z,380.00
2023-05-10T01:46:39.674Z,381.00
2023-05-10T01:47:39.658Z,380.00
2023-05-10T01:48:39.602Z,380.00
2023-05-10T01:49:39.611Z,378.00
2023-05-10T01:50:39.673Z,378.00
2023-05-10T01:51:39.657Z,377.00
2023-05-10T01:52:39.662Z,376.00
2023-05-10T01:53:39.677Z,374.00
2023-05-10T01:54:39.677Z,374.00
2023-05-10T01:55:39.700Z,374.00
2023-05-10T01:56:39.695Z,373.00
2023-05-10T01:57:39.694Z,375.00
2023-05-10T01:58:39.711Z,375.00
2023-05-10T01:59:39.712Z,375.00
2023-05-10T02:00:39.788Z,376.00
2023-05-10T02:01:39.784Z,377.00
2023-05-10T02:02:39.787Z,377.00
2023-05-10T02:03:39.779Z,376.00
2023-05-10T02:04:39.786Z,379.00
2023-05-10T02:05:39.806Z,380.00
2023-05-10T02:06:39.785Z,379.00
2023-05-10T02:07:39.829Z,377.00
2023-05-10T02:08:39.810Z,377.00
2023-05-10T02:09:39.792Z,378.00
2023-05-10T02:10:39.821Z,379.00
2023-05-10T02:11:39.799Z,377.00
2023-05-10T02:12:39.840Z,374.00
2023-05-10T02:13:39.834Z,375.00
2023-05-10T02:14:39.863Z,375.00
2023-05-10T02:15:39.874Z,374.00
2023-05-10T02:16:39.945Z,375.00
2023-05-10T02:17:39.895Z,374.00
2023-05-10T02:18:39.927Z,374.00
2023-05-10T02:19:39.903Z,375.00
2023-05-10T02:20:39.928Z,376.00
2023-05-10T02:21:39.948Z,378.00
2023-05-10T02:22:39.954Z,377.00
2023-05-10T02:23:39.944Z,378.00
2023-05-10T02:24:39.974Z,378.00
2023-05-10T02:25:39.989Z,377.00
2023-05-10T02:26:40.018Z,374.00
2023-05-10T02:27:40.049Z,375.00
2023-05-10T02:28:40.061Z,375.00
2023-05-10T02:29:40.065Z,373.00
2023-05-10T02:30:40.126Z,373.00
2023-05-10T02:31:40.129Z,373.00
2023-05-10T02:32:40.132Z,373.00
2023-05-10T02:33:40.118Z,372.00
2023-05-10T02:34:40.146Z,371.00
2023-05-10T02:35:40.158Z,372.00
2023-05-10T02:36:40.145Z,373.00
2023-05-10T02:37:40.171Z,373.00
2023-05-10T02:38:40.181Z,375.00
2023-05-10T02:39:40.250Z,372.00
2023-05-10T02:40:40.185Z,371.00
2023-05-10T02:41:40.212Z,372.00
2023-05-10T02:42:40.261Z,372.00
2023-05-10T02:43:40.250Z,372.00
2023-05-10T02:44:40.232Z,372.00
2023-05-10T02:45:40.290Z,375.00
2023-05-10T02:46:40.284Z,373.00
2023-05-10T02:47:40.402Z,373.00
2023-05-10T02:48:40.411Z,373.00
2023-05-10T02:49:40.363Z,371.00
2023-05-10T02:50:40.363Z,372.00
2023-05-10T02:51:40.364Z,370.00
2023-05-10T02:52:40.365Z,371.00
2023-05-10T02:53:40.391Z,372.00
2023-05-10T02:54:40.400Z,373.00
2023-05-10T02:55:40.438Z,374.00
2023-05-10T02:56:40.460Z,374.00
2023-05-10T02:57:40.456Z,375.00
2023-05-10T02:58:40.597Z,376.00
2023-05-10T02:59:40.459Z,377.00
2023-05-10T03:00:40.481Z,375.00
2023-05-10T03:01:40.629Z,375.00
2023-05-10T03:02:40.608Z,376.00
2023-05-10T03:03:40.532Z,377.00
2023-05-10T03:04:40.594Z,376.00
2023-05-10T03:05:40.584Z,375.00
2023-05-10T03:06:40.569Z,373.00
2023-05-10T03:07:40.590Z,373.00
2023-05-10T03:08:40.650Z,369.00
2023-05-10T03:09:40.635Z,369.00
2023-05-10T03:10:40.689Z,369.00
2023-05-10T03:11:40.717Z,371.00
2023-05-10T03:12:40.719Z,373.00
2023-05-10T03:13:40.726Z,373.00
2023-05-10T03:14:40.803Z,376.00
2023-05-10T03:15:40.827Z,375.00
2023-05-10T03:16:42.080Z,374.00
2023-05-10T03:17:40.937Z,375.00
2023-05-10T03:18:40.974Z,372.00
2023-05-10T03:19:40.956Z,374.00
2023-05-10T03:20:41.013Z,375.00
2023-05-10T03:21:41.002Z,376.00
2023-05-10T03:22:41.009Z,378.00
2023-05-10T03:23:41.033Z,378.00
2023-05-10T03:24:41.056Z,380.00
2023-05-10T03:25:41.112Z,379.00
2023-05-10T03:26:41.090Z,378.00
2023-05-10T03:27:41.125Z,378.00
2023-05-10T03:28:41.138Z,379.00
2023-05-10T03:29:41.147Z,379.00
2023-05-10T03:30:41.168Z,379.00
2023-05-10T03:31:41.252Z,379.00
2023-05-10T03:32:41.249Z,381.00
2023-05-10T03:33:41.248Z,380.00
2023-05-10T03:34:41.284Z,378.00
2023-05-10T03:35:41.281Z,378.00
2023-05-10T03:36:41.324Z,376.00
2023-05-10T03:37:41.345Z,375.00
2023-05-10T03:38:41.360Z,373.00
2023-05-10T03:39:41.407Z,374.00
2023-05-10T03:40:41.436Z,376.00
2023-05-10T03:41:41.497Z,379.00
2023-05-10T03:42:41.494Z,378.00
2023-05-10T03:43:41.504Z,379.00
2023-05-10T03:44:41.490Z,381.00
2023-05-10T03:45:41.564Z,378.00
2023-05-10T03:46:41.616Z,377.00
2023-05-10T03:47:41.651Z,377.00
2023-05-10T03:48:41.636Z,378.00
2023-05-10T03:49:41.688Z,377.00
2023-05-10T03:50:41.697Z,379.00
2023-05-10T03:51:41.675Z,380.00
2023-05-10T03:52:41.728Z,378.00
2023-05-10T03:53:41.728Z,376.00
2023-05-10T03:54:41.823Z,375.00
2023-05-10T03:55:41.829Z,371.00
2023-05-10T03:56:41.845Z,369.00
2023-05-10T03:57:41.912Z,369.00
2023-05-10T03:58:41.916Z,371.00
2023-05-10T03:59:41.911Z,370.00
2023-05-10T04:00:41.969Z,373.00
2023-05-10T04:01:42.028Z,377.00
2023-05-10T04:02:42.024Z,378.00
2023-05-10T04:03:42.112Z,378.00
2023-05-10T04:04:42.074Z,377.00
2023-05-10T04:05:42.158Z,379.00
2023-05-10T04:06:42.264Z,380.00
2023-05-10T04:07:42.267Z,380.00
2023-05-10T04:08:42.341Z,380.00
2023-05-10T04:09:42.383Z,380.00
2023-05-10T04:10:42.409Z,380.00
2023-05-10T04:11:42.455Z,382.00
2023-05-10T04:12:42.647Z,383.00
2023-05-10T04:13:42.571Z,383.00
2023-05-10T04:14:42.614Z,383.00
2023-05-10T04:15:42.682Z,386.00
2023-05-10T04:16:42.777Z,388.00
2023-05-10T04:17:42.823Z,385.00
2023-05-10T04:18:42.838Z,383.00
2023-05-10T04:19:42.914Z,387.00
2023-05-10T04:20:42.967Z,386.00
2023-05-10T04:21:43.030Z,390.00
2023-05-10T04:22:43.103Z,390.00
2023-05-10T04:23:43.198Z,390.00
2023-05-10T04:24:43.256Z,392.00
2023-05-10T04:25:43.249Z,391.00
2023-05-10T04:26:43.333Z,392.00
2023-05-10T04:27:43.323Z,393.00
2023-05-10T04:28:43.323Z,393.00
2023-05-10T04:29:43.460Z,394.00
2023-05-10T04:30:43.516Z,394.00
2023-05-10T04:31:43.511Z,396.00
2023-05-10T04:32:43.555Z,396.00
2023-05-10T04:33:43.519Z,397.00
2023-05-10T04:34:43.678Z,398.00
2023-05-10T04:35:43.653Z,398.00
2023-05-10T04:36:43.653Z,396.00
2023-05-10T04:37:43.655Z,397.00
2023-05-10T04:38:43.704Z,396.00
2023-05-10T04:39:43.724Z,397.00
2023-05-10T04:40:43.774Z,395.00
2023-05-10T04:41:43.827Z,394.00
2023-05-10T04:42:43.885Z,393.00
2023-05-10T04:43:44.016Z,392.00
2023-05-10T04:44:43.958Z,392.00
2023-05-10T04:45:44.021Z,390.00
2023-05-10T04:46:44.100Z,390.00
2023-05-10T04:47:44.160Z,389.00
2023-05-10T04:48:44.107Z,388.00
2023-05-10T04:49:44.174Z,386.00
2023-05-10T04:50:44.192Z,385.00
2023-05-10T04:51:44.252Z,386.00
2023-05-10T04:52:44.285Z,386.00
2023-05-10T04:53:48.609Z,383.00
2023-05-10T04:54:45.321Z,382.00
2023-05-10T04:55:44.334Z,382.00
2023-05-10T04:56:44.320Z,382.00
2023-05-10T04:57:44.320Z,383.00
2023-05-10T04:58:44.305Z,386.00
2023-05-10T04:59:44.320Z,387.00
2023-05-10T05:00:44.257Z,389.00
2023-05-10T05:01:44.310Z,391.00
2023-05-10T05:02:44.347Z,391.00
2023-05-10T05:03:44.365Z,393.00
2023-05-10T05:04:44.250Z,392.00
2023-05-10T05:05:44.256Z,392.00
2023-05-10T05:06:44.269Z,387.00
2023-05-10T05:07:44.318Z,387.00
2023-05-10T05:08:44.337Z,388.00
2023-05-10T05:09:44.384Z,389.00
2023-05-10T05:10:44.388Z,389.00
2023-05-10T05:11:44.500Z,389.00
2023-05-10T05:12:44.612Z,389.00
2023-05-10T05:13:44.589Z,391.00
2023-05-10T05:14:44.571Z,389.00
2023-05-10T05:15:44.624Z,388.00
2023-05-10T05:16:44.755Z,389.00
2023-05-10T05:17:44.758Z,390.00
2023-05-10T05:18:44.804Z,392.00
2023-05-10T05:19:44.846Z,393.00
2023-05-10T05:20:44.868Z,393.00
2023-05-10T05:21:44.929Z,394.00
2023-05-10T05:22:44.988Z,396.00
2023-05-10T05:23:44.985Z,394.00
2023-05-10T05:24:45.042Z,392.00
2023-05-10T05:25:45.110Z,389.00
2023-05-10T05:26:45.111Z,387.00
2023-05-10T05:27:45.165Z,384.00
2023-05-10T05:28:45.187Z,384.00
2023-05-10T05:29:45.233Z,386.00
2023-05-10T05:30:45.285Z,388.00
2023-05-10T05:31:45.380Z,388.00
2023-05-10T05:32:45.393Z,387.00
2023-05-10T05:33:45.383Z,387.00
2023-05-10T05:34:45.424Z,389.00
2023-05-10T05:35:45.495Z,392.00
2023-05-10T05:36:45.565Z,399.00
2023-05-10T05:37:45.636Z,405.00
2023-05-10T05:38:45.647Z,460.00
2023-05-10T05:39:45.663Z,444.00
2023-05-10T05:40:45.726Z,441.00
2023-05-10T05:41:46.191Z,444.00
2023-05-10T05:42:45.844Z,474.00
2023-05-10T05:43:45.890Z,484.00
2023-05-10T05:44:45.958Z,486.00
2023-05-10T05:45:45.982Z,495.00
2023-05-10T05:46:46.034Z,503.00
2023-05-10T05:47:46.143Z,510.00
2023-05-10T05:48:46.125Z,544.00
2023-05-10T05:49:46.232Z,572.00
2023-05-10T05:50:46.655Z,575.00
2023-05-10T05:51:46.209Z,582.00
2023-05-10T05:52:46.339Z,590.00
2023-05-10T05:53:46.645Z,595.00
2023-05-10T05:54:46.239Z,598.00
2023-05-10T05:55:46.292Z,601.00
2023-05-10T05:56:46.291Z,601.00
2023-05-10T05:57:46.333Z,599.00
2023-05-10T05:58:46.325Z,600.00
2023-05-10T05:59:46.362Z,600.00
2023-05-10T06:00:46.425Z,599.00
2023-05-10T06:01:46.717Z,603.00
2023-05-10T06:02:46.682Z,602.00
2023-05-10T06:03:46.715Z,601.00
2023-05-10T06:04:46.636Z,601.00
2023-05-10T06:05:46.716Z,599.00
2023-05-10T06:06:47.203Z,597.00
2023-05-10T06:07:46.836Z,599.00
2023-05-10T06:08:47.154Z,600.00
2023-05-10T06:09:47.150Z,603.00
2023-05-10T06:10:47.168Z,606.00
2023-05-10T06:11:47.170Z,607.00
2023-05-10T06:12:47.199Z,608.00
2023-05-10T06:13:47.118Z,608.00
2023-05-10T06:14:47.237Z,608.00
2023-05-10T06:15:47.257Z,607.00
2023-05-10T06:16:47.323Z,608.00
2023-05-10T06:17:47.688Z,609.00
2023-05-10T06:18:47.445Z,609.00
2023-05-10T06:19:47.517Z,605.00
2023-05-10T06:20:47.542Z,606.00
2023-05-10T06:21:47.584Z,607.00
2023-05-10T06:22:47.653Z,605.00
2023-05-10T06:23:47.763Z,608.00
2023-05-10T06:24:47.701Z,609.00
2023-05-10T06:25:47.776Z,611.00
2023-05-10T06:26:47.802Z,613.00
2023-05-10T06:27:50.475Z,613.00
2023-05-10T06:28:47.893Z,613.00
2023-05-10T06:29:49.215Z,615.00
2023-05-10T06:30:48.046Z,615.00
2023-05-10T06:31:48.096Z,618.00
2023-05-10T06:32:48.217Z,621.00
2023-05-10T06:33:48.241Z,625.00
2023-05-10T06:34:48.259Z,623.00
2023-05-10T06:35:48.363Z,621.00
2023-05-10T06:36:48.361Z,625.00
2023-05-10T06:37:48.402Z,633.00
2023-05-10T06:38:48.684Z,689.00
2023-05-10T06:39:48.490Z,690.00
2023-05-10T06:40:48.569Z,698.00
2023-05-10T06:41:48.559Z,704.00
2023-05-10T06:42:48.601Z,715.00
2023-05-10T06:43:48.610Z,723.00
2023-05-10T06:44:48.657Z,727.00
2023-05-10T06:45:48.788Z,725.00
2023-05-10T06:46:48.832Z,721.00
2023-05-10T06:47:48.806Z,721.00
2023-05-10T06:48:49.194Z,716.00
2023-05-10T06:49:49.192Z,714.00
2023-05-10T06:50:49.127Z,709.00
2023-05-10T06:51:49.114Z,704.00
2023-05-10T06:52:49.566Z,701.00
2023-05-10T06:53:49.069Z,698.00
2023-05-10T06:54:49.040Z,694.00
2023-05-10T06:55:49.137Z,690.00
2023-05-10T06:56:49.118Z,687.00
2023-05-10T06:57:49.585Z,685.00
2023-05-10T06:58:49.218Z,682.00
2023-05-10T06:59:49.173Z,681.00
2023-05-10T07:00:49.263Z,674.00
2023-05-10T07:01:49.299Z,671.00
2023-05-10T07:02:49.400Z,671.00
2023-05-10T07:03:49.392Z,667.00
2023-05-10T07:04:49.454Z,665.00
2023-05-10T07:05:49.439Z,661.00
2023-05-10T07:06:49.492Z,659.00
2023-05-10T07:07:49.510Z,662.00
2023-05-10T07:08:49.511Z,662.00
2023-05-10T07:09:49.562Z,664.00
2023-05-10T07:10:49.557Z,662.00
2023-05-10T07:11:49.631Z,661.00
2023-05-10T07:12:49.731Z,661.00
2023-05-10T07:13:49.632Z,659.00
2023-05-10T07:14:49.685Z,660.00
2023-05-10T07:15:49.735Z,660.00
2023-05-10T07:16:49.708Z,659.00
2023-05-10T07:17:49.853Z,658.00
2023-05-10T07:18:49.777Z,656.00
2023-05-10T07:19:49.834Z,656.00
2023-05-10T07:20:49.947Z,654.00
2023-05-10T07:21:49.942Z,657.00
2023-05-10T07:22:49.956Z,657.00
2023-05-10T07:23:50.007Z,656.00
2023-05-10T07:24:50.029Z,656.00
2023-05-10T07:25:50.081Z,654.00
2023-05-10T07:26:50.092Z,659.00
2023-05-10T07:27:50.110Z,660.00
2023-05-10T07:28:50.184Z,658.00
2023-05-10T07:29:50.186Z,658.00
2023-05-10T07:30:50.339Z,656.00
2023-05-10T07:31:50.304Z,655.00
2023-05-10T07:32:50.316Z,651.00
2023-05-10T07:33:50.300Z,654.00
2023-05-10T07:34:50.305Z,671.00
2023-05-10T07:35:50.354Z,681.00
2023-05-10T07:36:50.319Z,686.00
2023-05-10T07:37:50.384Z,708.00
2023-05-10T07:38:50.385Z,700.00
2023-05-10T07:39:51.144Z,689.00
2023-05-10T07:40:50.492Z,688.00
2023-05-10T07:41:50.494Z,686.00
2023-05-10T07:42:50.512Z,686.00
2023-05-10T07:43:50.562Z,691.00
2023-05-10T07:44:50.624Z,698.00
2023-05-10T07:45:50.674Z,703.00
2023-05-10T07:46:50.655Z,709.00
2023-05-10T07:47:50.659Z,712.00
2023-05-10T07:48:50.727Z,712.00
2023-05-10T07:49:50.705Z,709.00
2023-05-10T07:50:50.724Z,709.00
2023-05-10T07:51:50.769Z,709.00
2023-05-10T07:52:50.776Z,710.00
2023-05-10T07:53:50.766Z,711.00
2023-05-10T07:54:50.773Z,713.00
2023-05-10T07:55:50.770Z,715.00
2023-05-10T07:56:50.792Z,718.00
2023-05-10T07:57:50.841Z,720.00
2023-05-10T07:58:50.824Z,723.00
2023-05-10T07:59:50.887Z,728.00
2023-05-10T08:00:50.881Z,726.00
2023-05-10T08:01:50.881Z,722.00
2023-05-10T08:02:50.976Z,720.00
2023-05-10T08:03:50.986Z,724.00
2023-05-10T08:04:50.953Z,729.00
2023-05-10T08:05:50.886Z,727.00
2023-05-10T08:06:50.964Z,728.00
2023-05-10T08:07:50.968Z,728.00
2023-05-10T08:08:50.976Z,735.00
2023-05-10T08:09:50.985Z,738.00
2023-05-10T08:10:51.001Z,734.00
2023-05-10T08:11:50.987Z,732.00
2023-05-10T08:12:50.991Z,734.00
2023-05-10T08:13:51.003Z,730.00
2023-05-10T08:14:51.017Z,729.00
2023-05-10T08:15:51.061Z,734.00
2023-05-10T08:16:51.012Z,736.00
2023-05-10T08:17:51.124Z,735.00
2023-05-10T08:18:51.156Z,736.00
2023-05-10T08:19:51.122Z,740.00
2023-05-10T08:20:51.113Z,741.00
2023-05-10T08:21:51.126Z,737.00
2023-05-10T08:22:51.906Z,735.00
2023-05-10T08:23:51.128Z,735.00
2023-05-10T08:24:51.171Z,739.00
2023-05-10T08:25:51.173Z,733.00
2023-05-10T08:26:51.174Z,717.00
2023-05-10T08:27:51.216Z,704.00
2023-05-10T08:28:51.279Z,692.00
2023-05-10T08:29:51.280Z,677.00
2023-05-10T08:30:51.232Z,667.00
2023-05-10T08:31:51.333Z,656.00
2023-05-10T08:32:51.284Z,644.00
2023-05-10T08:33:51.274Z,637.00
2023-05-10T08:34:51.324Z,631.00
2023-05-10T08:35:51.328Z,634.00
2023-05-10T08:36:51.369Z,632.00
2023-05-10T08:37:51.331Z,632.00
2023-05-10T08:38:52.116Z,634.00
2023-05-10T08:39:51.419Z,633.00
2023-05-10T08:40:51.470Z,635.00
2023-05-10T08:41:51.570Z,638.00
2023-05-10T08:42:51.528Z,644.00
2023-05-10T08:43:51.562Z,655.00
2023-05-10T08:44:51.606Z,668.00
2023-05-10T08:45:51.645Z,676.00
2023-05-10T08:46:51.673Z,683.00
2023-05-10T08:47:51.702Z,695.00
2023-05-10T08:48:51.730Z,722.00
2023-05-10T08:49:52.094Z,738.00
2023-05-10T08:50:51.748Z,763.00
2023-05-10T08:51:51.790Z,833.00
2023-05-10T08:52:51.806Z,850.00
2023-05-10T08:53:51.873Z,856.00
2023-05-10T08:54:51.850Z,864.00
2023-05-10T08:55:51.909Z,867.00
2023-05-10T08:56:51.936Z,862.00
2023-05-10T08:57:51.972Z,865.00
2023-05-10T08:58:51.994Z,880.00
2023-05-10T08:59:52.012Z,881.00
2023-05-10T09:00:52.166Z,889.00
2023-05-10T09:01:52.014Z,890.00
2023-05-10T09:02:52.102Z,887.00
2023-05-10T09:03:52.137Z,885.00
2023-05-10T09:04:52.269Z,879.00
2023-05-10T09:05:52.098Z,881.00
2023-05-10T09:06:52.100Z,879.00
2023-05-10T09:07:52.122Z,879.00
2023-05-10T09:08:52.182Z,879.00
2023-05-10T09:09:52.191Z,877.00
2023-05-10T09:10:52.234Z,881.00
2023-05-10T09:11:52.298Z,882.00
2023-05-10T09:12:52.338Z,883.00
2023-05-10T09:13:52.361Z,885.00
2023-05-10T09:14:52.454Z,881.00
2023-05-10T09:15:53.088Z,884.00
2023-05-10T09:16:52.539Z,928.00
2023-05-10T09:17:52.593Z,912.00
2023-05-10T09:18:52.651Z,955.00
2023-05-10T09:19:52.569Z,975.00
2023-05-10T09:20:52.556Z,977.00
2023-05-10T09:21:52.633Z,975.00
2023-05-10T09:22:52.673Z,985.00
2023-05-10T09:23:52.738Z,992.00
2023-05-10T09:24:52.750Z,998.00
2023-05-10T09:25:52.841Z,1002.00
2023-05-10T09:26:52.909Z,1011.00
2023-05-10T09:27:52.957Z,1030.00
2023-05-10T09:28:53.029Z,1017.00
2023-05-10T09:29:52.983Z,1016.00
2023-05-10T09:30:53.078Z,1024.00
2023-05-10T09:31:53.090Z,1024.00
2023-05-10T09:32:53.191Z,879.00
2023-05-10T09:33:53.206Z,751.00
2023-05-10T09:34:53.296Z,731.00
2023-05-10T09:35:53.240Z,717.00
2023-05-10T09:36:53.315Z,709.00
2023-05-10T09:37:53.346Z,692.00
2023-05-10T09:38:53.428Z,666.00
2023-05-10T09:39:53.517Z,672.00
2023-05-10T09:40:53.530Z,677.00
2023-05-10T09:41:53.524Z,678.00
2023-05-10T09:42:53.602Z,678.00
2023-05-10T09:43:53.572Z,678.00
2023-05-10T09:44:53.599Z,681.00
2023-05-10T09:45:53.619Z,681.00
2023-05-10T09:46:53.624Z,681.00
2023-05-10T09:47:53.727Z,678.00
2023-05-10T09:48:53.685Z,678.00
2023-05-10T09:49:53.690Z,678.00
2023-05-10T09:50:53.697Z,677.00
2023-05-10T09:51:53.696Z,673.00
2023-05-10T09:52:54.105Z,671.00
2023-05-10T09:53:53.937Z,670.00
2023-05-10T09:54:53.943Z,671.00
2023-05-10T09:55:53.861Z,671.00
2023-05-10T09:56:53.891Z,673.00
2023-05-10T09:57:53.944Z,677.00
2023-05-10T09:58:53.981Z,676.00
2023-05-10T09:59:54.001Z,678.00
2023-05-10T10:00:54.064Z,674.00
2023-05-10T10:01:54.196Z,671.00
2023-05-10T10:02:54.192Z,669.00
2023-05-10T10:03:54.230Z,667.00
2023-05-10T10:04:54.357Z,664.00
2023-05-10T10:05:54.351Z,664.00
2023-05-10T10:06:54.415Z,663.00
2023-05-10T10:07:54.471Z,661.00
2023-05-10T10:08:56.777Z,659.00
2023-05-10T10:09:54.665Z,659.00
2023-05-10T10:10:54.644Z,658.00
2023-05-10T10:11:54.713Z,660.00
2023-05-10T10:12:54.772Z,662.00
2023-05-10T10:13:54.822Z,659.00
2023-05-10T10:14:54.888Z,659.00
2023-05-10T10:15:55.006Z,660.00
2023-05-10T10:17:05.862Z,658.00
2023-05-10T10:17:56.060Z,659.00
2023-05-10T10:18:55.110Z,659.00
2023-05-10T10:19:54.977Z,661.00
2023-05-10T10:20:54.969Z,660.00
2023-05-10T10:21:55.075Z,660.00
2023-05-10T10:22:54.968Z,665.00
2023-05-10T10:23:54.947Z,669.00
2023-05-10T10:24:54.958Z,671.00
2023-05-10T10:25:54.953Z,670.00
2023-05-10T10:26:55.084Z,668.00
2023-05-10T10:27:54.985Z,682.00
2023-05-10T10:28:55.011Z,689.00
2023-05-10T10:29:55.067Z,703.00
2023-05-10T10:30:55.053Z,713.00
2023-05-10T10:31:55.147Z,714.00
2023-05-10T10:32:55.104Z,724.00
2023-05-10T10:33:55.120Z,730.00
2023-05-10T10:34:55.137Z,738.00
2023-05-10T10:35:55.196Z,746.00
2023-05-10T10:36:55.264Z,755.00
2023-05-10T10:37:55.341Z,764.00
2023-05-10T10:38:55.387Z,768.00
2023-05-10T10:39:55.452Z,775.00
2023-05-10T10:40:55.565Z,784.00
2023-05-10T10:41:55.601Z,792.00
2023-05-10T10:42:55.586Z,805.00
2023-05-10T10:43:55.640Z,812.00
2023-05-10T10:44:55.642Z,814.00
2023-05-10T10:45:55.712Z,815.00
2023-05-10T10:46:55.750Z,815.00
2023-05-10T10:47:55.762Z,818.00
2023-05-10T10:48:55.752Z,818.00
2023-05-10T10:49:55.840Z,813.00
2023-05-10T10:50:55.843Z,810.00
2023-05-10T10:51:55.889Z,808.00
2023-05-10T10:52:55.924Z,808.00
2023-05-10T10:53:55.917Z,806.00
2023-05-10T10:54:55.981Z,800.00
2023-05-10T10:55:55.959Z,796.00
2023-05-10T10:56:55.991Z,794.00
2023-05-10T10:57:56.010Z,793.00
2023-05-10T10:58:56.038Z,797.00
2023-05-10T10:59:56.036Z,798.00
2023-05-10T11:00:56.153Z,798.00
2023-05-10T11:01:56.070Z,795.00
2023-05-10T11:02:56.212Z,792.00
2023-05-10T11:03:56.173Z,790.00
2023-05-10T11:04:56.092Z,783.00
2023-05-10T11:05:56.148Z,785.00
2023-05-10T11:06:56.113Z,779.00
2023-05-10T11:07:56.180Z,779.00
2023-05-10T11:08:56.184Z,781.00
2023-05-10T11:09:56.203Z,783.00
2023-05-10T11:10:56.187Z,784.00
2023-05-10T11:11:56.497Z,780.00
2023-05-10T11:12:56.214Z,777.00
2023-05-10T11:13:56.217Z,778.00
2023-05-10T11:14:56.221Z,775.00
2023-05-10T11:15:56.212Z,802.00
2023-05-10T11:16:56.338Z,788.00
2023-05-10T11:17:56.268Z,786.00
2023-05-10T11:18:56.406Z,771.00
2023-05-10T11:19:56.345Z,741.00
2023-05-10T11:20:56.393Z,704.00
2023-05-10T11:21:56.456Z,675.00
2023-05-10T11:22:56.503Z,625.00
2023-05-10T11:23:56.525Z,621.00
2023-05-10T11:24:56.523Z,613.00
2023-05-10T11:25:56.521Z,597.00
2023-05-10T11:26:56.608Z,578.00
2023-05-10T11:27:57.010Z,563.00
2023-05-10T11:28:56.634Z,552.00
2023-05-10T11:29:56.645Z,544.00
2023-05-10T11:30:56.700Z,532.00
2023-05-10T11:31:56.676Z,522.00
2023-05-10T11:32:56.743Z,515.00
2023-05-10T11:33:56.704Z,506.00
2023-05-10T11:34:56.740Z,497.00
2023-05-10T11:35:56.765Z,485.00
2023-05-10T11:36:56.843Z,476.00
2023-05-10T11:37:56.799Z,467.00
2023-05-10T11:38:56.844Z,459.00
2023-05-10T11:39:56.857Z,454.00
2023-05-10T11:40:56.898Z,450.00
2023-05-10T11:41:56.938Z,447.00
2023-05-10T11:42:57.013Z,440.00
2023-05-10T11:43:57.017Z,437.00
2023-05-10T11:44:57.051Z,434.00
2023-05-10T11:45:57.180Z,432.00
2023-05-10T11:46:57.177Z,430.00
2023-05-10T11:47:57.292Z,425.00
2023-05-10T11:48:57.295Z,421.00
2023-05-10T11:49:57.374Z,419.00
2023-05-10T11:50:57.405Z,414.00
2023-05-10T11:51:57.464Z,413.00
2023-05-10T11:52:57.495Z,410.00
2023-05-10T11:53:57.596Z,408.00
2023-05-10T11:54:57.612Z,406.00
2023-05-10T11:55:57.640Z,407.00
2023-05-10T11:56:57.658Z,404.00
2023-05-10T11:57:57.750Z,402.00
2023-05-10T11:58:57.766Z,400.00
2023-05-10T11:59:57.746Z,397.00
2023-05-10T12:00:57.766Z,398.00
2023-05-10T12:01:57.802Z,397.00
2023-05-10T12:02:57.920Z,399.00
2023-05-10T12:03:57.954Z,404.00
2023-05-10T12:04:57.834Z,422.00
2023-05-10T12:05:57.804Z,434.00
2023-05-10T12:06:57.835Z,564.00
2023-05-10T12:07:57.817Z,559.00
2023-05-10T12:08:57.792Z,565.00
2023-05-10T12:09:57.803Z,621.00
2023-05-10T12:10:57.824Z,641.00
2023-05-10T12:11:57.825Z,658.00
2023-05-10T12:12:57.952Z,679.00
2023-05-10T12:13:57.953Z,693.00
2023-05-10T12:14:57.913Z,703.00
2023-05-10T12:15:57.971Z,714.00
2023-05-10T12:16:57.953Z,721.00
2023-05-10T12:17:57.929Z,734.00
2023-05-10T12:18:58.075Z,740.00
2023-05-10T12:19:57.992Z,748.00
2023-05-10T12:20:57.955Z,760.00
2023-05-10T12:21:57.934Z,769.00
2023-05-10T12:22:59.759Z,779.00
2023-05-10T12:23:58.109Z,790.00
2023-05-10T12:24:58.062Z,794.00
2023-05-10T12:25:58.132Z,795.00
2023-05-10T12:26:58.072Z,787.00
2023-05-10T12:27:58.070Z,785.00
2023-05-10T12:28:58.149Z,786.00